Flight Track Log - Related Links

Times and Time Zones

All times are in EDT time to prevent confusion due to time zone crossing. See the ASQ4366 flight status page for this flight to view local times or setup timezone preferences in your user account.

Time Position Orientation Groundspeed Altitude Reporting Facility
EDT Latitude Longitude Course Direction KTS MPH feet Rate Location/Type
Wed 09:14:23 AM 29.9614 -95.3411 90° East 161 185 700  Level Houston Center
Wed 09:15:17 AM 29.9383 -95.3114 132° Southeast 186 214 1,800 1,707 Climbing Houston Center
Wed 09:16:19 AM 29.9208 -95.2236 103° East 254 292 4,000 2,293 Climbing Houston Center
Wed 09:17:00 AM 29.9834 -94.9456 90° East  Level FlightAware Approximate
Wed 09:17:20 AM 29.9278 -95.1375 85° East 266 306 6,500  Level Houston Center
Wed 09:18:00 AM 29.9834 -94.8163 90° East  Level FlightAware Approximate
Wed 09:18:22 AM 29.9350 -95.0489 85° East 273 314 8,900  Level Houston Center
Wed 09:19:00 AM 29.9834 -94.6871 90° East  Level FlightAware Approximate
Wed 09:19:24 AM 29.9428 -94.9567 84° East 282 325 10,800  Level Houston Center
Wed 09:20:26 AM 29.9522 -94.8519 84° East 319 367 11,500 871 Climbing Houston Center
Wed 09:21:28 AM 29.9614 -94.7372 85° East 353 406 12,600 1,113 Climbing Houston Center
Wed 09:22:30 AM 29.9711 -94.6186 85° East 366 421 13,800 1,220 Climbing Houston Center
Wed 09:23:31 AM 29.9811 -94.4997 84° East 371 427 15,100 1,366 Climbing Houston Center
Wed 09:24:33 AM 29.9917 -94.3589 85° East 368 423 16,600 1,258 Climbing Houston Center
Wed 09:25:35 AM 30.0042 -94.2372 83° East 383 441 17,700 968 Climbing Houston Center
Wed 09:26:37 AM 30.0186 -94.1136 82° East 389 448 18,600 919 Climbing Houston Center
Wed 09:27:39 AM 30.0353 -93.9894 81° East 394 453 19,600 1,016 Climbing Houston Center
Wed 09:28:41 AM 30.0508 -93.8625 82° East 400 460 20,700 1,024 Climbing Houston Center
Wed 09:29:42 AM 30.0650 -93.7350 83° East 404 465 21,700 976 Climbing Houston Center
Wed 09:30:44 AM 30.0819 -93.6072 81° East 405 466 22,700 1,016 Climbing Houston Center
Wed 09:31:46 AM 30.0989 -93.4681 82° East 404 465 23,800 1,016 Climbing Houston Center
Wed 09:32:48 AM 30.1136 -93.3408 82° East 402 463 24,800 1,073 Climbing Houston Center
Wed 09:33:49 AM 30.1314 -93.1883 82° East 402 463 26,000 1,122 Climbing Houston Center
Wed 09:34:51 AM 30.1606 -93.0667 74° East 405 466 27,100 1,016 Climbing Houston Center
Wed 09:35:53 AM 30.2208 -92.9586 57° Northeast 403 464 28,100 976 Climbing Houston Center
Wed 09:36:54 AM 30.2797 -92.8506 58° Northeast 401 461 29,100 976 Climbing Houston Center
Wed 09:37:56 AM 30.3392 -92.7417 58° Northeast 403 464 30,100 968 Climbing Houston Center
Wed 09:38:58 AM 30.3983 -92.6331 58° Northeast 402 463 31,100 1,113 Climbing Houston Center
Wed 09:40:00 AM 30.4700 -92.5008 58° Northeast 404 465 32,400 927 Climbing Houston Center
Wed 09:41:01 AM 30.5300 -92.3892 58° Northeast 409 471 33,000 293 Climbing Houston Center
Wed 09:42:03 AM 30.5942 -92.2708 58° Northeast 429 494 33,000  Level Houston Center
Wed 09:43:05 AM 30.6608 -92.1456 58° Northeast 451 519 33,000  Level Houston Center
Wed 09:44:07 AM 30.7300 -92.0175 58° Northeast 467 537 33,000  Level Houston Center
Wed 09:45:09 AM 30.7978 -91.8928 58° Northeast 462 532 33,000  Level Houston Center
Wed 09:46:11 AM 30.8772 -91.7408 59° Northeast 460 529 33,000  Level Houston Center
Wed 09:47:12 AM 30.9447 -91.6156 58° Northeast 460 529 33,000  Level Houston Center
Wed 09:48:14 AM 31.0114 -91.4900 58° Northeast 458 527 33,000  Level Houston Center
Wed 09:49:16 AM 31.0836 -91.3525 58° Northeast 459 528 33,000  Level Houston Center
Wed 09:50:18 AM 31.1500 -91.2272 58° Northeast 456 525 33,000  Level Houston Center
Wed 09:51:20 AM 31.2158 -91.1003 59° Northeast 456 525 33,000  Level Houston Center
Wed 09:52:22 AM 31.2817 -90.9742 59° Northeast 454 522 33,000  Level Houston Center
Wed 09:53:24 AM 31.3481 -90.8458 59° Northeast 457 526 33,000  Level Houston Center
Wed 09:54:26 AM 31.4139 -90.7186 59° Northeast 457 526 33,000  Level Houston Center
Wed 09:55:28 AM 31.4800 -90.5906 59° Northeast 458 527 33,000  Level Houston Center
Wed 09:56:30 AM 31.5589 -90.4369 59° Northeast 459 528 33,000  Level Houston Center
Wed 09:57:31 AM 31.6244 -90.3089 59° Northeast 458 527 33,000  Level Houston Center
Wed 09:58:33 AM 31.6914 -90.1789 59° Northeast 463 533 33,000  Level Houston Center
Wed 09:59:35 AM 31.7572 -90.0497 59° Northeast 461 531 33,000  Level Houston Center
Wed 10:00:37 AM 31.8231 -89.9206 59° Northeast 461 531 33,000  Level Houston Center
Wed 10:01:39 AM 31.8858 -89.7933 60° Northeast 460 529 33,000  Level Houston Center
Wed 10:02:41 AM 31.9650 -89.6378 59° Northeast 462 532 33,000  Level Houston Center
Wed 10:03:43 AM 32.0306 -89.5064 59° Northeast 464 534 33,000  Level Houston Center
Wed 10:04:46 AM 32.0981 -89.3728 59° Northeast 471 542 33,000  Level Houston Center
Wed 10:05:48 AM 32.1639 -89.2403 60° Northeast 469 540 33,000  Level Houston Center
Wed 10:06:50 AM 32.2292 -89.1092 59° Northeast 464 534 33,000  Level Houston Center
Wed 10:08:00 AM 32.3069 -88.9514 60° Northeast 461 531 33,000  Level Memphis Center
Wed 10:09:00 AM 32.3806 -88.8100 58° Northeast 461 531 33,000  Level Memphis Center
Wed 10:10:00 AM 32.4583 -88.6906 52° Northeast 456 525 33,000 850 Level Memphis Center
Wed 10:11:00 AM 32.5361 -88.5806 50° Northeast 446 513 34,700 50 Climbing Memphis Center
Wed 10:12:00 AM 32.6136 -88.4706 50° Northeast 432 497 33,100 -2,050 Descending Memphis Center
Wed 10:13:00 AM 32.6933 -88.3553 51° Northeast 432 497 30,600 -2,450 Descending Memphis Center
Wed 10:14:00 AM 32.7667 -88.2450 52° Northeast 432 497 28,200 -2,346 Descending Memphis Center
Wed 10:15:36 AM 32.8806 -88.0778 51° Northeast 429 494 24,500 -2,385 Descending Atlanta Center
Wed 10:16:36 AM 32.9594 -87.9653 50° Northeast 436 502 22,000 -2,550 Descending Atlanta Center
Wed 10:17:36 AM 33.0297 -87.8569 52° Northeast 429 494 19,400 -2,200 Descending Atlanta Center
Wed 10:18:36 AM 33.0972 -87.7606 50° Northeast 402 463 17,600 -1,950 Descending Atlanta Center
Wed 10:19:36 AM 33.1586 -87.6664 52° Northeast 376 433 15,500 -2,100 Descending Atlanta Center
Wed 10:20:36 AM 33.2197 -87.5747 51° Northeast 358 412 13,400 -2,100 Descending Atlanta Center
Wed 10:21:36 AM 33.2786 -87.4853 52° Northeast 348 400 11,300 -2,283 Descending Atlanta Center
Wed 10:22:08 AM 33.3131 -87.4394 48° Northeast 301 346 9,900 -1,484 Descending Atlanta Center
Wed 10:23:09 AM 33.3611 -87.3642 53° Northeast 279 321 9,000 -1,096 Descending Atlanta Center
Wed 10:24:03 AM 33.4025 -87.3058 50° Northeast 238 274 7,800 -1,379 Descending Atlanta Center
Wed 10:24:36 AM 33.4158 -87.2692 66° East 264 304 7,000 -1,419 Descending Atlanta Center
Wed 10:25:36 AM 33.4261 -87.1975 80° East 228 262 5,600 -1,200 Descending Atlanta Center
Wed 10:26:36 AM 33.4383 -87.1206 79° East 228 262 4,600 -1,000 Descending Atlanta Center
Wed 10:28:06 AM 33.4578 -87.0092 78° East 228 262 3,100 -640 Descending Atlanta Center
Wed 10:29:06 AM 33.4681 -86.9300 81° East 224 258 3,000 -248 Descending Atlanta Center
Wed 10:30:07 AM 33.4964 -86.8761 58° Northeast 168 193 2,600 -545 Descending Atlanta Center
Wed 10:31:07 AM 33.5164 -86.8344 60° Northeast 132 152 1,900 -744 Descending Atlanta Center
Wed 10:32:08 AM 33.5400 -86.7978 52° Northeast 138 159 1,100 -787 Descending Atlanta Center
Wed 10:34:00 AM 33.5500 -86.7500 63° Northeast  Level FlightAware Approximate

Login

Don't have an account? Register now (free) for customized features, flight alerts, and more!